sensor_id;sensor_type;location;lat;lon;timestamp;pressure;altitude;pressure_sealevel;temperature;humidity
73267;BME280;61495;53.400;7.608;2023-05-25T00:01:28;102595.06;;;8.70;81.49
73267;BME280;61495;53.400;7.608;2023-05-25T00:04:03;102584.81;;;8.65;81.42
73267;BME280;61495;53.400;7.608;2023-05-25T00:06:32;102596.66;;;8.63;80.86
73267;BME280;61495;53.400;7.608;2023-05-25T00:09:01;102588.78;;;8.61;81.35
73267;BME280;61495;53.400;7.608;2023-05-25T00:11:27;102598.78;;;8.59;81.55
73267;BME280;61495;53.400;7.608;2023-05-25T00:13:52;102599.94;;;8.57;81.41
73267;BME280;61495;53.400;7.608;2023-05-25T00:16:17;102599.53;;;8.52;81.25
73267;BME280;61495;53.400;7.608;2023-05-25T00:18:43;102602.34;;;8.50;81.00
73267;BME280;61495;53.400;7.608;2023-05-25T00:21:09;102579.50;;;8.38;80.89
73267;BME280;61495;53.400;7.608;2023-05-25T00:23:34;102601.13;;;8.45;81.21
73267;BME280;61495;53.400;7.608;2023-05-25T00:26:01;102596.06;;;8.42;81.69
73267;BME280;61495;53.400;7.608;2023-05-25T00:28:27;102587.97;;;8.33;81.00
73267;BME280;61495;53.400;7.608;2023-05-25T00:30:53;102583.50;;;8.34;81.41
73267;BME280;61495;53.400;7.608;2023-05-25T00:33:18;102596.28;;;8.30;81.20
73267;BME280;61495;53.400;7.608;2023-05-25T00:35:44;102595.16;;;8.33;82.51
73267;BME280;61495;53.400;7.608;2023-05-25T00:38:17;102597.28;;;8.29;81.72
73267;BME280;61495;53.400;7.608;2023-05-25T00:40:43;102598.97;;;8.30;81.88
73267;BME280;61495;53.400;7.608;2023-05-25T00:43:09;102588.84;;;8.24;82.05
73267;BME280;61495;53.400;7.608;2023-05-25T00:45:34;102584.09;;;8.18;81.56
73267;BME280;61495;53.400;7.608;2023-05-25T00:48:00;102581.56;;;8.17;81.67
73267;BME280;61495;53.400;7.608;2023-05-25T00:50:38;102587.75;;;8.17;81.58
73267;BME280;61495;53.400;7.608;2023-05-25T00:53:06;102580.47;;;8.10;81.55
73267;BME280;61495;53.400;7.608;2023-05-25T00:55:38;102580.06;;;8.05;81.12
73267;BME280;61495;53.400;7.608;2023-05-25T00:58:06;102583.88;;;8.02;80.58
73267;BME280;61495;53.400;7.608;2023-05-25T01:00:33;102585.00;;;8.00;81.45
73267;BME280;61495;53.400;7.608;2023-05-25T01:03:05;102585.47;;;7.95;81.07
73267;BME280;61495;53.400;7.608;2023-05-25T01:05:37;102585.88;;;7.91;81.55
73267;BME280;61495;53.400;7.608;2023-05-25T01:08:03;102586.22;;;7.78;80.94
73267;BME280;61495;53.400;7.608;2023-05-25T01:10:31;102596.31;;;7.84;81.23
73267;BME280;61495;53.400;7.608;2023-05-25T01:12:58;102594.94;;;7.80;80.93
73267;BME280;61495;53.400;7.608;2023-05-25T01:15:26;102588.47;;;7.73;81.44
73267;BME280;61495;53.400;7.608;2023-05-25T01:17:52;102590.16;;;7.74;81.14
73267;BME280;61495;53.400;7.608;2023-05-25T01:20:18;102588.66;;;7.71;81.09
73267;BME280;61495;53.400;7.608;2023-05-25T01:22:50;102598.75;;;7.68;81.22
73267;BME280;61495;53.400;7.608;2023-05-25T01:25:24;102586.84;;;7.62;81.21
73267;BME280;61495;53.400;7.608;2023-05-25T01:28:00;102589.06;;;7.57;81.41
73267;BME280;61495;53.400;7.608;2023-05-25T01:30:29;102592.88;;;7.55;82.00
73267;BME280;61495;53.400;7.608;2023-05-25T01:32:57;102593.03;;;7.53;81.72
73267;BME280;61495;53.400;7.608;2023-05-25T01:35:23;102595.84;;;7.52;81.71
73267;BME280;61495;53.400;7.608;2023-05-25T01:37:50;102596.41;;;7.46;81.80
73267;BME280;61495;53.400;7.608;2023-05-25T01:40:16;102591.34;;;7.43;81.31
73267;BME280;61495;53.400;7.608;2023-05-25T01:42:41;102602.03;;;7.43;81.46
73267;BME280;61495;53.400;7.608;2023-05-25T01:45:09;102603.72;;;7.44;81.75
73267;BME280;61495;53.400;7.608;2023-05-25T01:47:47;102605.69;;;7.42;81.73
73267;BME280;61495;53.400;7.608;2023-05-25T01:50:22;102602.59;;;7.37;81.97
73267;BME280;61495;53.400;7.608;2023-05-25T01:52:56;102600.38;;;7.32;81.71
73267;BME280;61495;53.400;7.608;2023-05-25T01:55:24;102590.00;;;7.29;82.02
73267;BME280;61495;53.400;7.608;2023-05-25T01:57:52;102609.50;;;7.30;81.91
73267;BME280;61495;53.400;7.608;2023-05-25T02:00:23;102609.50;;;7.30;81.90
73267;BME280;61495;53.400;7.608;2023-05-25T02:02:54;102607.41;;;7.23;82.17
73267;BME280;61495;53.400;7.608;2023-05-25T02:05:20;102604.03;;;7.21;82.54
73267;BME280;61495;53.400;7.608;2023-05-25T02:07:45;102609.38;;;7.21;82.64
73267;BME280;61495;53.400;7.608;2023-05-25T02:10:11;102603.19;;;7.21;82.48
73267;BME280;61495;53.400;7.608;2023-05-25T02:12:36;102599.28;;;7.15;82.63
73267;BME280;61495;53.400;7.608;2023-05-25T02:15:02;102604.59;;;7.15;83.00
73267;BME280;61495;53.400;7.608;2023-05-25T02:17:27;102604.59;;;7.15;83.27
73267;BME280;61495;53.400;7.608;2023-05-25T02:19:54;102605.28;;;7.17;83.53
73267;BME280;61495;53.400;7.608;2023-05-25T02:22:20;102609.94;;;7.15;83.35
73267;BME280;61495;53.400;7.608;2023-05-25T02:24:46;102603.03;;;7.13;83.20
73267;BME280;61495;53.400;7.608;2023-05-25T02:27:12;102617.19;;;7.13;83.41
73267;BME280;61495;53.400;7.608;2023-05-25T02:29:38;102616.50;;;7.11;83.54
73267;BME280;61495;53.400;7.608;2023-05-25T02:32:05;102596.59;;;7.06;84.21
73267;BME280;61495;53.400;7.608;2023-05-25T02:34:30;102599.41;;;7.04;84.16
73267;BME280;61495;53.400;7.608;2023-05-25T02:36:56;102606.41;;;7.05;84.01
73267;BME280;61495;53.400;7.608;2023-05-25T02:39:21;102597.72;;;7.03;83.82
73267;BME280;61495;53.400;7.608;2023-05-25T02:41:47;102610.91;;;7.05;83.95
73267;BME280;61495;53.400;7.608;2023-05-25T02:44:12;102610.34;;;7.01;84.11
73267;BME280;61495;53.400;7.608;2023-05-25T02:46:38;102611.34;;;7.00;84.47
73267;BME280;61495;53.400;7.608;2023-05-25T02:49:03;102618.31;;;7.01;84.60
73267;BME280;61495;53.400;7.608;2023-05-25T02:51:29;102612.59;;;6.96;84.42
73267;BME280;61495;53.400;7.608;2023-05-25T02:53:54;102603.91;;;6.94;84.61
73267;BME280;61495;53.400;7.608;2023-05-25T02:56:20;102609.91;;;6.96;84.72
73267;BME280;61495;53.400;7.608;2023-05-25T02:58:48;102617.63;;;6.99;84.93
73267;BME280;61495;53.400;7.608;2023-05-25T03:01:13;102604.19;;;6.91;85.06
73267;BME280;61495;53.400;7.608;2023-05-25T03:03:48;102616.38;;;6.94;85.17
73267;BME280;61495;53.400;7.608;2023-05-25T03:06:17;102623.09;;;6.98;85.18
73267;BME280;61495;53.400;7.608;2023-05-25T03:08:42;102629.53;;;6.95;85.28
73267;BME280;61495;53.400;7.608;2023-05-25T03:11:07;102634.59;;;6.98;85.21
73267;BME280;61495;53.400;7.608;2023-05-25T03:13:33;102630.66;;;6.93;85.28
73267;BME280;61495;53.400;7.608;2023-05-25T03:15:59;102629.81;;;6.92;85.67
73267;BME280;61495;53.400;7.608;2023-05-25T03:18:24;102643.84;;;6.94;85.77
73267;BME280;61495;53.400;7.608;2023-05-25T03:20:50;102634.16;;;6.93;86.40
73267;BME280;61495;53.400;7.608;2023-05-25T03:23:15;102636.00;;;6.93;86.17
73267;BME280;61495;53.400;7.608;2023-05-25T03:25:41;102647.50;;;6.93;86.00
73267;BME280;61495;53.400;7.608;2023-05-25T03:28:06;102645.53;;;6.95;85.58
73267;BME280;61495;53.400;7.608;2023-05-25T03:30:31;102651.69;;;6.96;85.13
73267;BME280;61495;53.400;7.608;2023-05-25T03:33:00;102640.47;;;6.92;85.48
73267;BME280;61495;53.400;7.608;2023-05-25T03:35:25;102643.00;;;6.94;84.86
73267;BME280;61495;53.400;7.608;2023-05-25T03:37:51;102647.78;;;6.90;85.13
73267;BME280;61495;53.400;7.608;2023-05-25T03:40:16;102637.97;;;6.91;85.11
73267;BME280;61495;53.400;7.608;2023-05-25T03:42:41;102644.13;;;6.91;85.07
73267;BME280;61495;53.400;7.608;2023-05-25T03:45:07;102642.16;;;6.84;85.26
73267;BME280;61495;53.400;7.608;2023-05-25T03:47:34;102650.44;;;6.90;85.03
73267;BME280;61495;53.400;7.608;2023-05-25T03:50:00;102638.50;;;6.85;85.06
73267;BME280;61495;53.400;7.608;2023-05-25T03:52:26;102641.31;;;6.83;84.76
73267;BME280;61495;53.400;7.608;2023-05-25T03:54:51;102643.69;;;6.86;84.99
73267;BME280;61495;53.400;7.608;2023-05-25T03:57:16;102643.97;;;6.83;85.10
73267;BME280;61495;53.400;7.608;2023-05-25T03:59:42;102644.41;;;6.88;85.24
73267;BME280;61495;53.400;7.608;2023-05-25T04:02:10;102642.72;;;6.87;86.03
73267;BME280;61495;53.400;7.608;2023-05-25T04:04:35;102640.75;;;6.89;85.93
73267;BME280;61495;53.400;7.608;2023-05-25T04:07:05;102654.63;;;6.93;85.90
73267;BME280;61495;53.400;7.608;2023-05-25T04:09:31;102649.75;;;6.88;85.59
73267;BME280;61495;53.400;7.608;2023-05-25T04:11:56;102656.47;;;6.92;85.63
73267;BME280;61495;53.400;7.608;2023-05-25T04:14:21;102646.94;;;6.90;85.84
73267;BME280;61495;53.400;7.608;2023-05-25T04:16:47;102668.53;;;6.96;85.64
73267;BME280;61495;53.400;7.608;2023-05-25T04:19:12;102646.06;;;6.89;85.27
73267;BME280;61495;53.400;7.608;2023-05-25T04:21:37;102649.47;;;6.91;85.94
73267;BME280;61495;53.400;7.608;2023-05-25T04:24:03;102645.81;;;6.92;85.82
73267;BME280;61495;53.400;7.608;2023-05-25T04:26:28;102659.56;;;6.97;85.96
73267;BME280;61495;53.400;7.608;2023-05-25T04:28:56;102659.28;;;7.00;86.24
73267;BME280;61495;53.400;7.608;2023-05-25T04:31:22;102663.91;;;6.98;86.23
73267;BME280;61495;53.400;7.608;2023-05-25T04:34:02;102661.97;;;7.00;88.03
73267;BME280;61495;53.400;7.608;2023-05-25T04:36:28;102667.97;;;7.02;88.08
73267;BME280;61495;53.400;7.608;2023-05-25T04:38:56;102674.72;;;7.06;88.74
73267;BME280;61495;53.400;7.608;2023-05-25T04:41:22;102670.78;;;7.10;88.88
73267;BME280;61495;53.400;7.608;2023-05-25T04:43:47;102683.72;;;7.15;89.43
73267;BME280;61495;53.400;7.608;2023-05-25T04:46:14;102680.19;;;7.14;89.29
73267;BME280;61495;53.400;7.608;2023-05-25T04:48:41;102678.78;;;7.20;90.16
73267;BME280;61495;53.400;7.608;2023-05-25T04:51:07;102673.03;;;7.24;92.82
73267;BME280;61495;53.400;7.608;2023-05-25T04:53:33;102676.16;;;7.39;93.41
73267;BME280;61495;53.400;7.608;2023-05-25T04:55:59;102693.25;;;7.56;93.71
73267;BME280;61495;53.400;7.608;2023-05-25T04:58:25;102680.31;;;7.80;97.43
73267;BME280;61495;53.400;7.608;2023-05-25T05:00:50;102687.28;;;8.00;97.47
73267;BME280;61495;53.400;7.608;2023-05-25T05:03:19;102692.13;;;8.24;97.89
73267;BME280;61495;53.400;7.608;2023-05-25T05:05:44;102682.47;;;8.50;96.68
73267;BME280;61495;53.400;7.608;2023-05-25T05:08:10;102679.13;;;8.75;98.09
73267;BME280;61495;53.400;7.608;2023-05-25T05:10:35;102690.84;;;9.10;97.51
73267;BME280;61495;53.400;7.608;2023-05-25T05:13:00;102706.53;;;9.40;97.73
73267;BME280;61495;53.400;7.608;2023-05-25T05:15:26;102701.53;;;9.63;96.14
73267;BME280;61495;53.400;7.608;2023-05-25T05:17:52;102697.69;;;9.83;96.66
73267;BME280;61495;53.400;7.608;2023-05-25T05:20:17;102700.84;;;10.04;97.00
73267;BME280;61495;53.400;7.608;2023-05-25T05:22:43;102709.91;;;10.29;95.35
73267;BME280;61495;53.400;7.608;2023-05-25T05:25:08;102691.81;;;10.56;95.81
73267;BME280;61495;53.400;7.608;2023-05-25T05:27:34;102695.41;;;10.81;93.69
73267;BME280;61495;53.400;7.608;2023-05-25T05:29:59;102709.25;;;11.19;93.44
73267;BME280;61495;53.400;7.608;2023-05-25T05:32:28;102702.41;;;11.32;92.76
73267;BME280;61495;53.400;7.608;2023-05-25T05:34:53;102704.44;;;11.54;91.62
73267;BME280;61495;53.400;7.608;2023-05-25T05:37:18;102704.63;;;11.77;90.53
73267;BME280;61495;53.400;7.608;2023-05-25T05:39:44;102704.44;;;12.03;89.59
73267;BME280;61495;53.400;7.608;2023-05-25T05:42:09;102704.41;;;12.19;88.16
73267;BME280;61495;53.400;7.608;2023-05-25T05:44:35;102704.69;;;12.40;87.00
73267;BME280;61495;53.400;7.608;2023-05-25T05:47:00;102717.38;;;12.62;86.69
73267;BME280;61495;53.400;7.608;2023-05-25T05:49:26;102719.84;;;12.72;85.32
73267;BME280;61495;53.400;7.608;2023-05-25T05:51:52;102716.91;;;12.90;83.94
73267;BME280;61495;53.400;7.608;2023-05-25T05:54:17;102709.47;;;13.00;83.91
73267;BME280;61495;53.400;7.608;2023-05-25T05:56:42;102719.09;;;13.25;82.39
73267;BME280;61495;53.400;7.608;2023-05-25T05:59:10;102719.22;;;13.31;80.51
73267;BME280;61495;53.400;7.608;2023-05-25T06:01:36;102730.72;;;13.48;81.01
73267;BME280;61495;53.400;7.608;2023-05-25T06:04:10;102733.28;;;13.64;79.97
73267;BME280;61495;53.400;7.608;2023-05-25T06:06:35;102733.09;;;13.88;79.71
73267;BME280;61495;53.400;7.608;2023-05-25T06:09:02;102741.94;;;13.97;78.67
73267;BME280;61495;53.400;7.608;2023-05-25T06:11:29;102743.47;;;14.14;78.65
73267;BME280;61495;53.400;7.608;2023-05-25T06:13:55;102748.97;;;14.21;77.12
73267;BME280;61495;53.400;7.608;2023-05-25T06:16:20;102743.34;;;14.08;76.89
73267;BME280;61495;53.400;7.608;2023-05-25T06:18:46;102741.34;;;13.87;73.22
73267;BME280;61495;53.400;7.608;2023-05-25T06:21:11;102734.31;;;13.86;74.38
73267;BME280;61495;53.400;7.608;2023-05-25T06:23:36;102747.69;;;13.94;74.07
73267;BME280;61495;53.400;7.608;2023-05-25T06:26:03;102757.56;;;14.02;73.38
73267;BME280;61495;53.400;7.608;2023-05-25T06:28:29;102755.00;;;14.23;72.40
73267;BME280;61495;53.400;7.608;2023-05-25T06:30:54;102760.16;;;14.47;73.39
73267;BME280;61495;53.400;7.608;2023-05-25T06:33:25;102763.81;;;14.69;72.65
73267;BME280;61495;53.400;7.608;2023-05-25T06:35:50;102764.00;;;14.96;72.12
73267;BME280;61495;53.400;7.608;2023-05-25T06:38:16;102759.38;;;15.12;72.17
73267;BME280;61495;53.400;7.608;2023-05-25T06:40:42;102766.53;;;15.19;71.40
73267;BME280;61495;53.400;7.608;2023-05-25T06:43:07;102760.59;;;15.45;70.78
73267;BME280;61495;53.400;7.608;2023-05-25T06:45:32;102768.34;;;15.48;70.49
73267;BME280;61495;53.400;7.608;2023-05-25T06:47:58;102769.75;;;15.44;69.68
73267;BME280;61495;53.400;7.608;2023-05-25T06:50:23;102769.13;;;15.27;69.24
73267;BME280;61495;53.400;7.608;2023-05-25T06:52:48;102790.25;;;15.24;68.70
73267;BME280;61495;53.400;7.608;2023-05-25T06:55:14;102790.13;;;15.11;68.88
73267;BME280;61495;53.400;7.608;2023-05-25T06:57:40;102795.72;;;14.94;66.36
73267;BME280;61495;53.400;7.608;2023-05-25T07:00:06;102795.34;;;14.97;65.88
73267;BME280;61495;53.400;7.608;2023-05-25T07:02:38;102782.25;;;15.30;66.82
73267;BME280;61495;53.400;7.608;2023-05-25T07:05:04;102785.88;;;15.37;66.38
73267;BME280;61495;53.400;7.608;2023-05-25T07:07:31;102782.19;;;15.45;66.03
73267;BME280;61495;53.400;7.608;2023-05-25T07:09:56;102785.59;;;15.68;67.09
73267;BME280;61495;53.400;7.608;2023-05-25T07:12:22;102778.41;;;15.75;67.84
73267;BME280;61495;53.400;7.608;2023-05-25T07:14:47;102795.97;;;15.65;64.36
73267;BME280;61495;53.400;7.608;2023-05-25T07:17:13;102796.03;;;15.50;64.26
73267;BME280;61495;53.400;7.608;2023-05-25T07:19:39;102792.13;;;15.38;65.02
73267;BME280;61495;53.400;7.608;2023-05-25T07:22:06;102801.53;;;15.27;64.38
73267;BME280;61495;53.400;7.608;2023-05-25T07:24:32;102818.09;;;15.24;65.50
73267;BME280;61495;53.400;7.608;2023-05-25T07:26:57;102808.44;;;15.15;65.79
73267;BME280;61495;53.400;7.608;2023-05-25T07:29:22;102817.81;;;15.34;65.42
73267;BME280;61495;53.400;7.608;2023-05-25T07:31:48;102815.28;;;15.62;66.59
73267;BME280;61495;53.400;7.608;2023-05-25T07:34:13;102814.69;;;15.87;67.98
73267;BME280;61495;53.400;7.608;2023-05-25T07:36:39;102818.53;;;16.21;67.37
73267;BME280;61495;53.400;7.608;2023-05-25T07:39:04;102816.69;;;16.00;65.40
73267;BME280;61495;53.400;7.608;2023-05-25T07:41:30;102779.47;;;15.60;63.88
73267;BME280;61495;53.400;7.608;2023-05-25T07:43:55;102815.31;;;15.68;62.97
73267;BME280;61495;53.400;7.608;2023-05-25T07:46:20;102819.56;;;15.77;64.23
73267;BME280;61495;53.400;7.608;2023-05-25T07:48:49;102818.69;;;15.91;64.41
73267;BME280;61495;53.400;7.608;2023-05-25T07:51:15;102816.00;;;15.91;65.09
73267;BME280;61495;53.400;7.608;2023-05-25T07:53:40;102823.81;;;15.86;64.78
73267;BME280;61495;53.400;7.608;2023-05-25T07:56:07;102825.81;;;15.78;64.51
73267;BME280;61495;53.400;7.608;2023-05-25T07:58:32;102823.44;;;15.68;63.91
73267;BME280;61495;53.400;7.608;2023-05-25T08:00:58;102823.03;;;15.71;64.93
73267;BME280;61495;53.400;7.608;2023-05-25T08:03:23;102828.00;;;15.89;65.79
73267;BME280;61495;53.400;7.608;2023-05-25T08:05:49;102830.00;;;15.80;64.14
73267;BME280;61495;53.400;7.608;2023-05-25T08:08:15;102839.78;;;15.81;65.12
73267;BME280;61495;53.400;7.608;2023-05-25T08:10:40;102845.34;;;15.94;65.26
73267;BME280;61495;53.400;7.608;2023-05-25T08:13:06;102847.13;;;15.87;63.91
73267;BME280;61495;53.400;7.608;2023-05-25T08:15:31;102854.06;;;15.75;63.27
73267;BME280;61495;53.400;7.608;2023-05-25T08:17:56;102856.03;;;16.02;63.95
73267;BME280;61495;53.400;7.608;2023-05-25T08:20:22;102846.22;;;16.23;64.97
73267;BME280;61495;53.400;7.608;2023-05-25T08:22:48;102857.59;;;16.39;65.54
73267;BME280;61495;53.400;7.608;2023-05-25T08:25:17;102857.94;;;16.30;63.02
73267;BME280;61495;53.400;7.608;2023-05-25T08:27:43;102858.03;;;16.43;64.14
73267;BME280;61495;53.400;7.608;2023-05-25T08:30:08;102867.59;;;16.39;60.33
73267;BME280;61495;53.400;7.608;2023-05-25T08:32:34;102865.28;;;16.36;62.69
73267;BME280;61495;53.400;7.608;2023-05-25T08:35:00;102867.22;;;16.42;62.50
73267;BME280;61495;53.400;7.608;2023-05-25T08:37:30;102869.16;;;16.27;60.96
73267;BME280;61495;53.400;7.608;2023-05-25T08:39:55;102883.09;;;16.30;61.25
73267;BME280;61495;53.400;7.608;2023-05-25T08:42:20;102867.47;;;16.26;62.79
73267;BME280;61495;53.400;7.608;2023-05-25T08:44:47;102867.47;;;16.26;62.73
73267;BME280;61495;53.400;7.608;2023-05-25T08:47:13;102866.44;;;16.27;61.61
73267;BME280;61495;53.400;7.608;2023-05-25T08:49:43;102876.88;;;16.51;61.43
73267;BME280;61495;53.400;7.608;2023-05-25T08:52:13;102870.63;;;16.29;61.22
73267;BME280;61495;53.400;7.608;2023-05-25T08:54:42;102876.75;;;16.38;61.89
73267;BME280;61495;53.400;7.608;2023-05-25T08:57:17;102875.44;;;16.34;62.18
73267;BME280;61495;53.400;7.608;2023-05-25T09:00:03;102870.31;;;16.39;62.18
73267;BME280;61495;53.400;7.608;2023-05-25T09:02:49;102876.34;;;16.62;62.45
73267;BME280;61495;53.400;7.608;2023-05-25T09:05:19;102881.63;;;16.49;62.59
73267;BME280;61495;53.400;7.608;2023-05-25T09:07:45;102883.84;;;16.39;61.91
73267;BME280;61495;53.400;7.608;2023-05-25T09:10:11;102894.00;;;16.37;62.58
73267;BME280;61495;53.400;7.608;2023-05-25T09:12:37;102886.94;;;16.36;61.29
73267;BME280;61495;53.400;7.608;2023-05-25T09:15:03;102889.88;;;16.20;61.87
73267;BME280;61495;53.400;7.608;2023-05-25T09:17:29;102894.78;;;16.09;62.03
73267;BME280;61495;53.400;7.608;2023-05-25T09:19:54;102898.22;;;16.18;61.73
73267;BME280;61495;53.400;7.608;2023-05-25T09:22:20;102901.63;;;16.05;62.74
73267;BME280;61495;53.400;7.608;2023-05-25T09:24:46;102905.16;;;16.06;62.12
73267;BME280;61495;53.400;7.608;2023-05-25T09:27:15;102894.53;;;16.04;62.93
73267;BME280;61495;53.400;7.608;2023-05-25T09:29:41;102890.09;;;15.97;63.32
73267;BME280;61495;53.400;7.608;2023-05-25T09:32:11;102890.66;;;15.92;62.84
73267;BME280;61495;53.400;7.608;2023-05-25T09:34:37;102901.38;;;16.00;63.32
73267;BME280;61495;53.400;7.608;2023-05-25T09:37:03;102899.84;;;15.98;63.55
73267;BME280;61495;53.400;7.608;2023-05-25T09:39:34;102901.38;;;16.00;62.19
73267;BME280;61495;53.400;7.608;2023-05-25T09:42:00;102894.28;;;15.99;62.68
73267;BME280;61495;53.400;7.608;2023-05-25T09:44:26;102908.44;;;16.23;63.02
73267;BME280;61495;53.400;7.608;2023-05-25T09:46:52;102901.63;;;16.27;61.82
73267;BME280;61495;53.400;7.608;2023-05-25T09:49:17;102909.53;;;16.07;59.58
73267;BME280;61495;53.400;7.608;2023-05-25T09:51:44;102916.41;;;16.09;60.56
73267;BME280;61495;53.400;7.608;2023-05-25T09:54:10;102906.19;;;16.05;60.85
73267;BME280;61495;53.400;7.608;2023-05-25T09:56:36;102920.25;;;16.15;60.79
73267;BME280;61495;53.400;7.608;2023-05-25T09:59:01;102910.22;;;16.16;61.29
73267;BME280;61495;53.400;7.608;2023-05-25T10:01:27;102922.50;;;16.33;62.03
73267;BME280;61495;53.400;7.608;2023-05-25T10:03:55;102920.88;;;16.38;62.61
73267;BME280;61495;53.400;7.608;2023-05-25T10:06:24;102931.31;;;16.20;60.12
73267;BME280;61495;53.400;7.608;2023-05-25T10:08:50;102922.56;;;16.18;61.90
73267;BME280;61495;53.400;7.608;2023-05-25T10:11:18;102930.72;;;16.25;62.28
73267;BME280;61495;53.400;7.608;2023-05-25T10:13:45;102937.66;;;16.12;60.79
73267;BME280;61495;53.400;7.608;2023-05-25T10:16:15;102939.03;;;16.23;61.39
73267;BME280;61495;53.400;7.608;2023-05-25T10:19:35;102930.31;;;16.28;60.43
73267;BME280;61495;53.400;7.608;2023-05-25T10:21:40;102948.38;;;16.42;60.93
73267;BME280;61495;53.400;7.608;2023-05-25T10:24:34;102940.66;;;16.60;60.95
73267;BME280;61495;53.400;7.608;2023-05-25T10:27:03;102931.25;;;16.56;59.14
73267;BME280;61495;53.400;7.608;2023-05-25T10:29:32;102924.81;;;16.57;58.04
73267;BME280;61495;53.400;7.608;2023-05-25T10:32:12;102935.13;;;16.68;58.08
73267;BME280;61495;53.400;7.608;2023-05-25T10:34:39;102924.41;;;16.60;57.79
73267;BME280;61495;53.400;7.608;2023-05-25T10:37:06;102926.94;;;16.61;58.02
73267;BME280;61495;53.400;7.608;2023-05-25T10:39:33;102920.34;;;16.71;56.84
73267;BME280;61495;53.400;7.608;2023-05-25T10:42:01;102923.41;;;16.89;58.58
73267;BME280;61495;53.400;7.608;2023-05-25T10:44:28;102918.22;;;16.94;58.75
73267;BME280;61495;53.400;7.608;2023-05-25T10:46:53;102927.44;;;16.99;59.53
73267;BME280;61495;53.400;7.608;2023-05-25T10:49:29;102925.84;;;17.11;60.69
73267;BME280;61495;53.400;7.608;2023-05-25T10:51:58;102929.94;;;17.35;60.18
73267;BME280;61495;53.400;7.608;2023-05-25T10:54:30;102938.25;;;17.27;57.71
73267;BME280;61495;53.400;7.608;2023-05-25T10:57:21;102939.22;;;17.19;58.65
73267;BME280;61495;53.400;7.608;2023-05-25T10:59:49;102941.53;;;17.22;57.58
73267;BME280;61495;53.400;7.608;2023-05-25T11:02:16;102934.94;;;17.32;56.33
73267;BME280;61495;53.400;7.608;2023-05-25T11:04:41;102922.91;;;17.47;58.16
73267;BME280;61495;53.400;7.608;2023-05-25T11:07:12;102931.69;;;17.43;55.12
73267;BME280;61495;53.400;7.608;2023-05-25T11:09:41;102943.13;;;17.45;56.75
73267;BME280;61495;53.400;7.608;2023-05-25T11:12:20;102921.59;;;17.30;56.18
73267;BME280;61495;53.400;7.608;2023-05-25T11:15:12;102923.84;;;17.61;58.07
73267;BME280;61495;53.400;7.608;2023-05-25T11:17:56;102944.47;;;17.55;55.50
73267;BME280;61495;53.400;7.608;2023-05-25T11:20:26;102920.00;;;17.42;57.45
73267;BME280;61495;53.400;7.608;2023-05-25T11:22:51;102932.88;;;17.34;55.84
73267;BME280;61495;53.400;7.608;2023-05-25T11:25:43;102928.69;;;17.38;55.88
73267;BME280;61495;53.400;7.608;2023-05-25T11:28:08;102930.09;;;17.55;57.37
73267;BME280;61495;53.400;7.608;2023-05-25T11:30:37;102925.03;;;17.52;57.20
73267;BME280;61495;53.400;7.608;2023-05-25T11:33:03;102916.66;;;17.47;56.35
73267;BME280;61495;53.400;7.608;2023-05-25T11:35:30;102927.59;;;17.60;57.55
73267;BME280;61495;53.400;7.608;2023-05-25T11:37:58;102921.00;;;17.75;58.15
73267;BME280;61495;53.400;7.608;2023-05-25T11:40:28;102921.94;;;18.15;59.75
73267;BME280;61495;53.400;7.608;2023-05-25T11:42:54;102921.16;;;17.67;54.89
73267;BME280;61495;53.400;7.608;2023-05-25T11:45:21;102923.03;;;17.67;57.00
73267;BME280;61495;53.400;7.608;2023-05-25T11:47:46;102915.16;;;17.72;55.86
73267;BME280;61495;53.400;7.608;2023-05-25T11:50:14;102930.47;;;18.12;59.96
73267;BME280;61495;53.400;7.608;2023-05-25T11:52:41;102916.50;;;18.02;57.49
73267;BME280;61495;53.400;7.608;2023-05-25T11:55:11;102919.84;;;18.11;57.21
73267;BME280;61495;53.400;7.608;2023-05-25T11:57:38;102913.78;;;18.15;56.29
73267;BME280;61495;53.400;7.608;2023-05-25T12:00:05;102921.09;;;18.08;56.47
73267;BME280;61495;53.400;7.608;2023-05-25T12:02:39;102916.97;;;18.32;56.95
73267;BME280;61495;53.400;7.608;2023-05-25T12:05:05;102914.88;;;18.41;56.20
73267;BME280;61495;53.400;7.608;2023-05-25T12:07:34;102921.13;;;18.48;56.12
73267;BME280;61495;53.400;7.608;2023-05-25T12:10:06;102921.13;;;18.48;56.39
73267;BME280;61495;53.400;7.608;2023-05-25T12:12:42;102917.41;;;18.62;57.52
73267;BME280;61495;53.400;7.608;2023-05-25T12:15:10;102908.84;;;18.78;56.40
73267;BME280;61495;53.400;7.608;2023-05-25T12:17:39;102907.41;;;18.56;54.23
73267;BME280;61495;53.400;7.608;2023-05-25T12:20:05;102913.25;;;18.72;54.87
73267;BME280;61495;53.400;7.608;2023-05-25T12:22:32;102902.78;;;18.56;55.33
73267;BME280;61495;53.400;7.608;2023-05-25T12:24:57;102908.22;;;18.76;55.76
73267;BME280;61495;53.400;7.608;2023-05-25T12:27:23;102917.63;;;18.54;56.39
73267;BME280;61495;53.400;7.608;2023-05-25T12:29:48;102919.00;;;18.23;53.65
73267;BME280;61495;53.400;7.608;2023-05-25T12:32:19;102917.78;;;18.19;54.35
73267;BME280;61495;53.400;7.608;2023-05-25T12:34:44;102924.88;;;18.33;54.51
73267;BME280;61495;53.400;7.608;2023-05-25T12:37:20;102923.22;;;18.32;54.51
73267;BME280;61495;53.400;7.608;2023-05-25T12:39:46;102920.34;;;18.54;55.30
73267;BME280;61495;53.400;7.608;2023-05-25T12:42:15;102913.19;;;18.20;55.19
73267;BME280;61495;53.400;7.608;2023-05-25T12:44:42;102915.53;;;18.49;56.13
73267;BME280;61495;53.400;7.608;2023-05-25T12:47:18;102917.22;;;18.70;56.50
73267;BME280;61495;53.400;7.608;2023-05-25T12:49:48;102920.34;;;18.73;57.44
73267;BME280;61495;53.400;7.608;2023-05-25T12:52:35;102903.00;;;18.68;54.38
73267;BME280;61495;53.400;7.608;2023-05-25T12:57:45;102911.13;;;18.81;57.18
73267;BME280;61495;53.400;7.608;2023-05-25T13:00:12;102911.13;;;18.88;54.81